.
WxDataArchive / Data Records for 2009-03-22
2009-03-21 March 2009 2009-03-23

Data Records for Sunday, 22 March 2009

Time	Temp	Chill	HIndex	Humid	Dewpt	 Wind 	HiWind	WindDir	Rain 	Barom 
-----	----	-----	------	-----	-----	------	------	-------	-----	----- 
00:00	34.3	34.3	34.3	77	27.9	0	0	---	0.00	30.433 
00:05	34.0	34.0	34.0	78	27.9	0	0	---	0.00	30.429 
00:10	33.8	33.8	33.8	79	28.0	0	0	---	0.00	30.429 
00:15	33.7	33.7	33.7	79	27.9	0	0	---	0.00	30.429 
00:20	33.5	33.5	33.5	79	27.7	0	0	---	0.00	30.429 
00:25	33.2	33.2	33.2	80	27.7	0	0	---	0.00	30.431 
00:30	33.1	33.1	33.1	80	27.6	0	0	---	0.00	30.430 
00:35	32.9	32.9	32.9	81	27.7	0	0	---	0.00	30.430 
00:40	32.9	32.9	32.9	82	28.0	0	0	---	0.00	30.430 
00:45	32.8	32.8	32.8	82	27.9	0	0	---	0.00	30.431 
00:50	32.8	32.8	32.8	83	28.2	0	0	---	0.00	30.431 
00:55	32.7	32.7	32.7	83	28.1	0	0	---	0.00	30.431 
01:00	32.5	32.5	32.5	84	28.2	0	0	---	0.00	30.431 
01:05	32.4	32.4	32.4	84	28.1	0	0	---	0.00	30.429 
01:10	32.2	32.2	32.2	85	28.2	0	0	---	0.00	30.429 
01:15	32.2	32.2	32.2	85	28.2	0	0	---	0.00	30.429 
01:20	32.1	32.1	32.1	86	28.4	0	0	---	0.00	30.430 
01:25	31.8	31.8	31.8	86	28.1	0	0	---	0.00	30.431 
01:30	31.8	31.8	31.8	86	28.1	0	0	---	0.00	30.433 
01:35	31.6	31.6	31.6	86	27.9	0	0	---	0.00	30.431 
01:40	31.5	31.5	31.5	86	27.8	0	0	---	0.00	30.431 
01:45	31.3	31.3	31.3	86	27.6	0	0	---	0.00	30.429 
01:50	31.3	31.3	31.3	87	27.9	0	0	---	0.00	30.428 
01:55	31.3	31.3	31.3	87	27.9	0	0	---	0.00	30.427 
02:00	31.2	31.2	31.2	86	27.5	0	0	---	0.00	30.426 
02:05	31.0	31.0	31.0	86	27.3	0	0	---	0.00	30.425 
02:10	31.0	31.0	31.0	86	27.3	0	0	---	0.00	30.426 
02:15	30.9	30.9	30.9	86	27.2	0	0	---	0.00	30.427 
02:20	30.9	30.9	30.9	86	27.2	0	0	---	0.00	30.426 
02:25	30.9	30.9	30.9	86	27.2	0	0	---	0.00	30.426 
02:30	30.9	30.9	30.9	87	27.5	0	0	---	0.00	30.423 
02:35	30.9	30.9	30.9	87	27.5	0	0	---	0.00	30.422 
02:40	30.9	30.9	30.9	87	27.5	0	0	---	0.00	30.425 
02:45	30.9	30.9	30.9	87	27.5	0	0	---	0.00	30.425 
02:50	31.0	31.0	31.0	87	27.6	0	0	---	0.00	30.423 
02:55	31.0	31.0	31.0	87	27.6	0	0	---	0.00	30.422 
03:00	31.0	31.0	31.0	87	27.6	0	0	---	0.00	30.422 
03:05	31.0	31.0	31.0	87	27.6	0	0	---	0.00	30.423 
03:10	30.9	30.9	30.9	87	27.5	0	0	---	0.00	30.420 
03:15	30.7	30.7	30.7	87	27.3	0	0	---	0.00	30.421 
03:20	30.6	30.6	30.6	87	27.2	0	0	---	0.00	30.420 
03:25	30.4	30.4	30.4	87	27.0	0	0	---	0.00	30.420 
03:30	30.4	30.4	30.4	87	27.0	0	0	---	0.00	30.422 
03:35	30.3	30.3	30.3	87	26.9	0	0	---	0.00	30.418 
03:40	30.1	30.1	30.1	87	26.7	0	0	---	0.00	30.417 
03:45	30.1	30.1	30.1	87	26.7	0	0	---	0.00	30.417 
03:50	30.0	30.0	30.0	87	26.6	0	0	---	0.00	30.418 
03:55	30.0	30.0	30.0	87	26.6	0	0	---	0.00	30.418 
04:00	30.0	30.0	30.0	87	26.6	0	0	---	0.00	30.416 
04:05	29.8	29.8	29.8	87	26.4	0	0	---	0.00	30.416 
04:10	29.8	29.8	29.8	87	26.4	0	0	---	0.00	30.417 
04:15	29.7	29.7	29.7	87	26.3	0	0	---	0.00	30.420 
04:20	29.7	29.7	29.7	87	26.3	0	0	---	0.00	30.419 
04:25	29.7	29.7	29.7	87	26.3	0	0	---	0.00	30.420 
04:30	29.5	29.5	29.5	87	26.1	0	0	---	0.00	30.420 
04:35	29.4	29.4	29.4	87	26.0	0	0	---	0.00	30.420 
04:40	29.3	29.3	29.3	87	25.9	0	0	---	0.00	30.420 
04:45	29.3	29.3	29.3	88	26.2	0	0	---	0.00	30.418 
04:50	29.3	29.3	29.3	88	26.2	0	0	---	0.00	30.417 
04:55	29.3	29.3	29.3	88	26.2	0	0	---	0.00	30.419 
05:00	29.1	29.1	29.1	88	26.0	0	0	---	0.00	30.419 
05:05	29.1	29.1	29.1	88	26.0	0	0	---	0.00	30.422 
05:10	29.3	29.3	29.3	88	26.2	0	0	---	0.00	30.422 
05:15	29.3	29.3	29.3	88	26.2	0	0	---	0.00	30.424 
05:20	29.1	29.1	29.1	88	26.0	0	0	---	0.00	30.424 
05:25	29.0	29.0	29.0	88	25.9	0	0	---	0.00	30.424 
05:30	28.8	28.8	28.8	88	25.7	0	0	---	0.00	30.425 
05:35	28.8	28.8	28.8	88	25.7	0	0	---	0.00	30.427 
05:40	28.8	28.8	28.8	88	25.7	0	0	---	0.00	30.428 
05:45	28.7	28.7	28.7	88	25.6	0	0	---	0.00	30.428 
05:50	28.7	28.7	28.7	88	25.6	0	0	---	0.00	30.428 
05:55	28.7	28.7	28.7	88	25.6	0	0	---	0.00	30.428 
06:00	28.5	28.5	28.5	88	25.4	0	0	---	0.00	30.428 
06:05	28.5	28.5	28.5	88	25.4	0	0	---	0.00	30.432 
06:10	28.5	28.5	28.5	89	25.7	0	0	---	0.00	30.433 
06:15	28.4	28.4	28.4	89	25.6	0	0	---	0.00	30.435 
06:20	28.5	28.5	28.5	89	25.7	0	0	---	0.00	30.434 
06:25	28.5	28.5	28.5	89	25.7	0	0	---	0.00	30.434 
06:30	28.4	28.4	28.4	89	25.6	0	0	---	0.00	30.436 
06:35	28.4	28.4	28.4	90	25.8	0	0	---	0.00	30.436 
06:40	28.4	28.4	28.4	89	25.6	0	0	---	0.00	30.436 
06:45	28.2	28.2	28.2	89	25.4	0	0	---	0.00	30.436 
06:50	28.2	28.2	28.2	90	25.7	0	0	---	0.00	30.436 
06:55	28.2	28.2	28.2	90	25.7	0	0	---	0.00	30.437 
07:00	28.2	28.2	28.2	90	25.7	0	0	---	0.00	30.437 
07:05	28.2	28.2	28.2	90	25.7	0	0	---	0.00	30.443 
07:10	28.2	28.2	28.2	90	25.7	0	0	---	0.00	30.443 
07:15	28.4	28.4	28.4	90	25.8	0	0	---	0.00	30.444 
07:20	28.5	28.5	28.5	90	25.9	0	0	---	0.00	30.442 
07:25	28.8	28.8	28.8	91	26.5	0	0	---	0.00	30.442 
07:30	29.3	29.3	29.3	91	27.0	0	0	---	0.00	30.441 
07:35	29.8	29.8	29.8	92	27.8	0	0	---	0.00	30.441 
07:40	30.7	30.7	30.7	92	28.7	0	0	---	0.00	30.441 
07:45	31.3	31.3	31.3	92	29.3	0	0	---	0.00	30.440 
07:50	31.9	31.9	31.9	92	29.8	0	0	---	0.00	30.440 
07:55	32.7	32.7	32.7	91	30.4	0	0	---	0.00	30.440 
08:00	33.2	33.2	33.2	91	30.9	0	0	---	0.00	30.438 
08:05	34.0	34.0	34.0	90	31.4	0	0	---	0.00	30.440 
08:10	34.9	34.9	34.9	90	32.3	0	0	---	0.00	30.441 
08:15	35.9	35.9	35.9	85	31.8	0	1	68	0.00	30.439 
08:20	37.0	37.0	37.0	81	31.7	0	0	---	0.00	30.439 
08:25	37.8	37.8	37.8	78	31.6	0	0	---	0.00	30.437 
08:30	38.6	38.6	38.6	76	31.7	0	0	---	0.00	30.437 
08:35	39.8	39.8	39.8	72	31.5	0	1	68	0.00	30.438 
08:40	40.8	40.8	40.8	69	31.4	0	0	---	0.00	30.439 
08:45	41.8	41.8	41.8	68	32.0	0	1	68	0.00	30.438 
08:50	42.8	42.8	42.8	61	30.3	0	1	68	0.00	30.437 
08:55	43.8	43.8	43.8	59	30.4	0	1	68	0.00	30.437 
09:00	44.8	44.8	44.8	55	29.6	0	1	68	0.00	30.434 
09:05	45.8	45.8	45.8	57	31.4	0	1	68	0.00	30.436 
09:10	47.0	47.0	47.0	54	31.2	0	1	68	0.00	30.437 
09:15	48.3	48.3	48.3	53	32.0	0	1	68	0.00	30.434 
09:20	49.5	49.5	49.5	50	31.6	0	1	68	0.00	30.433 
09:25	50.5	50.5	50.5	47	31.0	0	2	68	0.00	30.432 
09:30	51.4	51.4	51.4	46	31.3	0	1	68	0.00	30.431 
09:35	52.2	52.2	52.2	43	30.4	0	1	68	0.00	30.433 
09:40	52.9	52.9	52.9	42	30.4	1	2	68	0.00	30.435 
09:45	53.5	53.5	53.5	45	32.7	0	1	68	0.00	30.437 
09:50	54.1	54.1	54.1	40	30.3	0	1	68	0.00	30.436 
09:55	54.4	54.4	54.4	43	32.4	0	1	68	0.00	30.438 
10:00	54.5	54.5	54.5	40	30.7	0	2	68	0.00	30.439 
10:05	55.0	55.0	55.0	41	31.7	0	1	68	0.00	30.438 
10:10	55.6	55.6	55.6	39	31.0	0	1	68	0.00	30.438 
10:15	56.3	56.3	56.3	39	31.7	0	2	68	0.00	30.437 
10:20	56.7	56.7	56.7	36	30.0	0	2	45	0.00	30.436 
10:25	57.3	57.3	57.3	33	28.4	1	3	45	0.00	30.435 
10:30	57.5	57.5	57.5	33	28.6	1	3	68	0.00	30.431 
10:35	57.6	57.6	57.6	34	29.4	1	2	68	0.00	30.430 
10:40	58.0	58.0	58.0	33	29.1	0	2	68	0.00	30.430 
10:45	58.0	58.0	58.0	35	30.5	0	1	68	0.00	30.433 
10:50	58.1	58.1	58.1	33	29.2	1	3	90	0.00	30.432 
10:55	58.3	58.3	58.3	34	30.1	0	2	135	0.00	30.432 
11:00	58.6	58.6	58.6	32	28.8	0	2	135	0.00	30.430 
11:05	59.3	59.3	59.3	34	30.9	0	2	135	0.00	30.432 
11:10	59.5	59.5	59.5	34	31.1	0	2	112	0.00	30.431 
11:15	59.5	59.5	59.5	32	29.6	0	2	112	0.00	30.430 
11:20	59.6	59.6	59.6	35	31.9	0	2	112	0.00	30.430 
11:25	59.2	59.2	59.2	32	29.4	1	2	112	0.00	30.428 
11:30	59.0	59.0	59.0	34	30.7	0	1	112	0.00	30.427 
11:35	59.5	59.5	59.5	35	31.8	0	2	112	0.00	30.426 
11:40	59.9	59.9	59.9	32	30.0	2	6	112	0.00	30.425 
11:45	59.5	59.5	59.5	33	30.4	2	4	112	0.00	30.425 
11:50	59.6	59.6	59.6	36	32.6	1	2	112	0.00	30.422 
11:55	59.9	59.9	59.9	34	31.5	1	3	68	0.00	30.422 
12:00	60.2	60.2	60.2	32	30.2	2	5	90	0.00	30.421 
12:05	60.4	60.4	60.4	35	32.6	1	4	90	0.00	30.423 
12:10	60.4	60.4	60.4	32	30.4	1	3	90	0.00	30.422 
12:15	60.2	60.2	60.2	35	32.4	2	5	90	0.00	30.420 
12:20	60.2	60.2	60.2	36	33.1	2	6	112	0.00	30.420 
12:25	60.2	60.2	60.2	34	31.7	2	5	90	0.00	30.416 
12:30	60.1	60.1	60.1	34	31.6	3	6	90	0.00	30.413 
12:35	60.5	60.5	60.5	32	30.5	2	6	112	0.00	30.411 
12:40	60.4	60.4	60.4	33	31.2	3	7	90	0.00	30.411 
12:45	60.5	60.5	60.5	34	32.0	1	5	90	0.00	30.409 
12:50	60.5	60.5	60.5	33	31.3	3	6	112	0.00	30.408 
12:55	60.9	60.9	60.9	34	32.3	2	6	112	0.00	30.409 
13:00	61.2	61.2	61.2	30	29.5	1	3	90	0.00	30.409 
13:05	61.3	61.3	61.3	34	32.7	2	7	90	0.00	30.408 
13:10	61.3	61.3	61.3	35	33.4	1	4	112	0.00	30.408 
13:15	61.2	61.2	61.2	34	32.6	2	6	90	0.00	30.407 
13:20	60.7	60.7	60.7	32	30.7	4	7	90	0.00	30.407 
13:25	60.7	60.7	60.7	32	30.7	2	5	112	0.00	30.407 
13:30	61.2	61.2	61.2	34	32.6	1	2	45	0.00	30.405 
13:35	61.6	61.6	61.6	32	31.5	1	2	45	0.00	30.401 
13:40	62.1	62.1	62.1	33	32.7	0	1	22	0.00	30.400 
13:45	62.3	62.3	62.3	32	32.1	2	5	112	0.00	30.397 
13:50	62.0	62.0	62.0	29	29.4	1	3	90	0.00	30.394 
13:55	61.8	61.8	61.8	28	28.4	1	5	90	0.00	30.393 
14:00	61.6	61.6	61.6	30	29.9	1	6	112	0.00	30.392 
14:05	61.6	61.6	61.6	29	29.0	1	4	135	0.00	30.391 
14:10	62.1	62.1	62.1	33	32.7	0	2	135	0.00	30.388 
14:15	62.6	62.6	62.6	29	29.9	2	5	112	0.00	30.384 
14:20	62.4	62.4	62.4	28	28.9	2	5	112	0.00	30.380 
14:25	62.4	62.4	62.4	31	31.4	1	2	90	0.00	30.379 
14:30	62.4	62.4	62.4	29	29.7	1	4	112	0.00	30.377 
14:35	62.1	62.1	62.1	29	29.5	1	4	90	0.00	30.376 
14:40	62.3	62.3	62.3	29	29.6	0	2	90	0.00	30.375 
14:45	62.1	62.1	62.1	31	31.1	0	2	90	0.00	30.374 
14:50	62.0	62.0	62.0	30	30.2	1	4	68	0.00	30.373 
14:55	62.0	62.0	62.0	29	29.4	2	5	112	0.00	30.370 
15:00	61.8	61.8	61.8	30	30.0	2	5	112	0.00	30.368 
15:05	62.0	62.0	62.0	28	28.5	2	7	112	0.00	30.368 
15:10	62.4	62.4	62.4	31	31.4	1	4	112	0.00	30.366 
15:15	62.4	62.4	62.4	29	29.7	2	6	112	0.00	30.363 
15:20	62.4	62.4	62.4	31	31.4	1	2	112	0.00	30.363 
15:25	62.3	62.3	62.3	28	28.8	2	6	112	0.00	30.362 
15:30	61.8	61.8	61.8	28	28.4	1	4	112	0.00	30.361 
15:35	61.6	61.6	61.6	30	29.9	1	2	135	0.00	30.361 
15:40	61.5	61.5	61.5	31	30.6	1	3	90	0.00	30.361 
15:45	61.2	61.2	61.2	30	29.5	2	5	90	0.00	30.361 
15:50	60.9	60.9	60.9	32	30.8	3	5	112	0.00	30.360 
15:55	60.5	60.5	60.5	29	28.1	2	5	90	0.00	30.359 
16:00	60.5	60.5	60.5	28	27.2	2	4	90	0.00	30.358 
16:05	60.5	60.5	60.5	31	29.7	2	4	68	0.00	30.357 
16:10	60.7	60.7	60.7	31	29.9	1	4	90	0.00	30.354 
16:15	60.9	60.9	60.9	31	30.1	1	3	90	0.00	30.357 
16:20	60.7	60.7	60.7	31	29.9	3	5	90	0.00	30.357 
16:25	60.4	60.4	60.4	30	28.8	1	4	90	0.00	30.357 
16:30	60.4	60.4	60.4	32	30.4	1	5	90	0.00	30.358 
16:35	60.4	60.4	60.4	30	28.8	2	4	90	0.00	30.357 
16:40	60.4	60.4	60.4	30	28.8	1	4	90	0.00	30.356 
16:45	60.5	60.5	60.5	31	29.7	0	2	90	0.00	30.355 
16:50	60.5	60.5	60.5	29	28.1	1	2	90	0.00	30.350 
16:55	60.5	60.5	60.5	30	28.9	0	2	112	0.00	30.350 
17:00	60.7	60.7	60.7	29	28.3	0	2	158	0.00	30.349 
17:05	60.7	60.7	60.7	29	28.3	1	6	90	0.00	30.348 
17:10	60.5	60.5	60.5	30	28.9	2	6	90	0.00	30.347 
17:15	60.2	60.2	60.2	30	28.7	4	7	90	0.00	30.349 
17:20	60.1	60.1	60.1	31	29.4	3	6	90	0.00	30.348 
17:25	60.1	60.1	60.1	31	29.4	2	6	68	0.00	30.349 
17:30	59.9	59.9	59.9	30	28.4	3	7	90	0.00	30.348 
17:35	59.9	59.9	59.9	31	29.2	2	4	112	0.00	30.348 
17:40	59.9	59.9	59.9	31	29.2	1	5	90	0.00	30.348 
17:45	59.9	59.9	59.9	31	29.2	3	5	90	0.00	30.349 
17:50	59.8	59.8	59.8	32	29.9	2	5	112	0.00	30.349 
17:55	59.6	59.6	59.6	31	28.9	2	6	90	0.00	30.349 
18:00	59.5	59.5	59.5	33	30.4	2	5	90	0.00	30.349 
18:05	59.2	59.2	59.2	34	30.8	2	4	90	0.00	30.351 
18:10	58.9	58.9	58.9	35	31.3	1	4	90	0.00	30.351 
18:15	58.6	58.6	58.6	35	31.0	2	5	112	0.00	30.353 
18:20	58.3	58.3	58.3	36	31.5	3	5	90	0.00	30.353 
18:25	57.8	57.8	57.8	39	33.0	4	11	90	0.00	30.357 
18:30	56.3	56.3	56.3	46	35.8	5	11	112	0.00	30.366 
18:35	54.8	54.8	54.8	47	35.0	7	15	90	0.00	30.369 
18:40	53.9	53.9	53.9	50	35.7	4	11	90	0.00	30.369 
18:45	53.2	53.2	53.2	50	35.0	4	10	112	0.00	30.371 
18:50	52.6	52.6	52.6	51	35.0	6	12	112	0.00	30.371 
18:55	52.2	52.2	52.2	52	35.1	6	12	112	0.00	30.371 
19:00	51.6	51.6	51.6	53	35.0	6	10	90	0.00	30.372 
19:05	51.0	51.0	51.0	53	34.5	6	11	90	0.00	30.369 
19:10	50.5	50.5	50.5	53	34.0	5	10	112	0.00	30.372 
19:15	50.1	50.1	50.1	54	34.1	6	12	90	0.00	30.376 
19:20	49.6	47.2	49.6	55	34.1	6	13	112	0.00	30.379 
19:25	49.2	46.7	49.2	56	34.2	6	13	112	0.00	30.384 
19:30	48.8	45.7	48.8	57	34.3	7	12	112	0.00	30.384 
19:35	48.5	46.5	48.5	58	34.4	5	12	112	0.00	30.387 
19:40	48.0	45.9	48.0	58	33.9	5	11	112	0.00	30.391 
19:45	47.6	44.8	47.6	59	34.0	6	13	90	0.00	30.396 
19:50	47.3	45.0	47.3	60	34.1	5	10	112	0.00	30.401 
19:55	46.8	43.9	46.8	61	34.1	6	11	90	0.00	30.403 
20:00	46.5	43.0	46.5	62	34.2	7	14	90	0.00	30.403 
20:05	46.1	42.0	46.1	63	34.2	8	15	112	0.00	30.396 
20:10	45.7	42.5	45.7	64	34.2	6	12	112	0.00	30.397 
20:15	45.2	42.0	45.2	65	34.1	6	12	112	0.00	30.401 
20:20	44.8	42.1	44.8	66	34.1	5	10	90	0.00	30.400 
20:25	44.5	41.1	44.5	68	34.6	6	13	112	0.00	30.404 
20:30	44.1	44.1	44.1	69	34.6	3	9	112	0.00	30.405 
20:35	43.8	40.9	43.8	69	34.3	5	13	112	0.00	30.405 
20:40	43.5	40.6	43.5	68	33.7	5	10	112	0.00	30.408 
20:45	43.2	40.2	43.2	68	33.4	5	12	112	0.00	30.410 
20:50	42.9	39.9	42.9	68	33.1	5	13	112	0.00	30.411 
20:55	42.6	39.5	42.6	68	32.8	5	10	112	0.00	30.410 
21:00	42.5	38.7	42.5	69	33.1	6	12	90	0.00	30.409 
21:05	42.2	39.1	42.2	69	32.8	5	11	112	0.00	30.403 
21:10	42.1	38.3	42.1	69	32.7	6	13	112	0.00	30.404 
21:15	41.8	37.3	41.8	70	32.7	7	14	90	0.00	30.407 
21:20	41.6	37.7	41.6	70	32.6	6	12	112	0.00	30.408 
21:25	41.5	37.5	41.5	70	32.5	6	12	90	0.00	30.408 
21:30	41.2	37.9	41.2	70	32.2	5	10	90	0.00	30.412 
21:35	41.1	37.8	41.1	69	31.7	5	13	112	0.00	30.418 
21:40	40.9	36.8	40.9	69	31.5	6	12	112	0.00	30.416 
21:45	40.8	36.7	40.8	69	31.4	6	11	90	0.00	30.415 
21:50	40.6	36.5	40.6	68	30.9	6	12	112	0.00	30.412 
21:55	40.5	37.1	40.5	67	30.4	5	10	112	0.00	30.411 
22:00	40.3	36.1	40.3	67	30.2	6	13	90	0.00	30.414 
22:05	40.2	36.0	40.2	66	29.8	6	11	90	0.00	30.409 
22:10	40.1	36.6	40.1	66	29.7	5	14	112	0.00	30.411 
22:15	39.9	36.4	39.9	66	29.5	5	10	112	0.00	30.413 
22:20	39.8	37.1	39.8	66	29.4	4	10	90	0.00	30.416 
22:25	39.5	36.7	39.5	66	29.1	4	10	112	0.00	30.417 
22:30	39.3	36.5	39.3	66	28.9	4	9	90	0.00	30.417 
22:35	39.2	36.4	39.2	67	29.2	4	10	112	0.00	30.416 
22:40	39.1	36.3	39.1	67	29.1	4	7	90	0.00	30.415 
22:45	38.9	36.0	38.9	67	28.9	4	11	90	0.00	30.415 
22:50	38.8	35.9	38.8	66	28.4	4	9	90	0.00	30.414 
22:55	38.5	35.6	38.5	66	28.1	4	10	90	0.00	30.413 
23:00	38.5	35.6	38.5	65	27.8	4	8	90	0.00	30.414 
23:05	38.3	34.5	38.3	64	27.2	5	9	90	0.00	30.414 
23:10	38.2	35.2	38.2	64	27.1	4	9	90	0.00	30.418 
23:15	38.0	35.0	38.0	63	26.5	4	8	112	0.00	30.417 
23:20	37.8	34.8	37.8	63	26.4	4	9	90	0.00	30.417 
23:25	37.6	33.7	37.6	62	25.8	5	9	112	0.00	30.418 
23:30	37.5	33.5	37.5	62	25.7	5	11	112	0.00	30.418 
23:35	37.5	34.4	37.5	62	25.7	4	11	112	0.00	30.417 
23:40	37.3	34.2	37.3	62	25.5	4	7	90	0.00	30.419 
23:45	37.2	33.2	37.2	61	25.0	5	10	90	0.00	30.419 
23:50	37.0	32.2	37.0	61	24.8	6	10	90	0.00	30.419 
23:55	36.9	32.1	36.9	62	25.1	6	12	112	0.00	30.420 

CoCoRaHS
IN-AL-39
A2 Web Hosting
Creative Commons License
GoDaddy
search engine by freefind advanced

loaded 2018-11-15 04:15:08 • last modified 2010-11-18 10:43:29
Privacy PolicyDisclaimer
• wx.awcolley.com is powered by PmWiki v.2002016 •
• all content (unless otherwise noted) © 2018 A W Colley